Time;durP1;ratioP1;P1;durP2;ratioP2;P2;SDS_P1;SDS_P2;PMS_P1;PMS_P2;Temp;Humidity;BMP_temperature;BMP_pressure;BME280_temperature;BME280_humidity;BME280_pressure;Samples;Min_cycle;Max_cycle;Signal;HPM_P1;HPM_P2
2023/07/04 00:01:11;;;;;;;;;;;14.50;99.90;;;;;;4938308;28;19914;-87
2023/07/04 00:03:38;;;;;;;;;;;14.50;99.90;;;;;;4956677;28;19965;-88
2023/07/04 00:06:05;;;;;;;;;;;14.40;99.90;;;;;;4936117;28;20247;-88
2023/07/04 00:08:33;;;;;;;;;;;14.40;99.90;;;;;;4936908;29;19921;-89
2023/07/04 00:10:59;;;;;;;;;;;14.40;99.90;;;;;;4959386;28;19969;-87
2023/07/04 00:13:26;;;;;;;;;;;14.40;99.90;;;;;;4947344;28;19922;-87
2023/07/04 00:15:52;;;;;;;;;;;14.30;99.90;;;;;;4948229;28;20286;-87
2023/07/04 00:18:21;;;;;;;;;;;14.40;99.90;;;;;;4934868;29;20338;-88
2023/07/04 00:20:54;;;;;;;;;;;14.30;99.90;;;;;;4958262;28;20286;-88
2023/07/04 00:23:20;;;;;;;;;;;14.30;99.90;;;;;;4952602;28;19921;-88
2023/07/04 00:25:46;;;;;;;;;;;14.40;99.90;;;;;;4936967;28;19997;-88
2023/07/04 00:28:12;;;;;;;;;;;14.40;99.90;;;;;;4951801;28;19948;-90
2023/07/04 00:30:37;;;;;;;;;;;14.40;99.90;;;;;;4948914;29;20354;-88
2023/07/04 00:33:03;;;;;;;;;;;14.50;99.90;;;;;;4958423;28;19917;-89
2023/07/04 00:35:29;;;;;;;;;;;14.50;99.90;;;;;;4933749;29;19922;-88
2023/07/04 00:37:56;;;;;;;;;;;14.50;99.90;;;;;;4955742;28;19918;-88
2023/07/04 00:40:26;;;;;;;;;;;14.50;99.90;;;;;;4938230;28;20647;-88
2023/07/04 00:42:56;;;;;;;;;;;14.40;99.90;;;;;;4938588;28;19915;-88
2023/07/04 00:45:23;;;;;;;;;;;14.40;99.90;;;;;;4959633;28;19915;-88
2023/07/04 00:47:55;;;;;;;;;;;14.40;99.90;;;;;;4936977;28;19915;-87
2023/07/04 00:50:23;;;;;;;;;;;14.40;99.90;;;;;;4943662;28;19914;-88
2023/07/04 00:56:18;;;;;;;;;;;14.30;99.90;;;;;;4975700;28;19925;-89
2023/07/04 00:58:45;;;;;;;;;;;14.30;99.90;;;;;;4958382;28;19914;-88
2023/07/04 01:01:10;;;;;;;;;;;14.30;99.90;;;;;;4950392;28;19915;-88
2023/07/04 01:03:36;;;;;;;;;;;14.20;99.90;;;;;;4936906;28;20281;-87
2023/07/04 01:06:14;;;;;;;;;;;14.20;99.90;;;;;;4936847;28;19914;-88
2023/07/04 01:08:41;;;;;;;;;;;14.10;99.90;;;;;;4940186;28;19914;-88
2023/07/04 01:11:15;;;;;;;;;;;14.00;99.90;;;;;;4934265;28;19973;-87
2023/07/04 01:13:43;;;;;;;;;;;14.00;99.90;;;;;;4954234;28;20346;-87
2023/07/04 01:16:10;;;;;;;;;;;14.00;99.90;;;;;;4949448;28;19918;-88
2023/07/04 01:18:39;;;;;;;;;;;13.90;99.90;;;;;;4937207;28;19918;-88
2023/07/04 01:21:07;;;;;;;;;;;13.90;99.90;;;;;;4959404;28;19918;-88
2023/07/04 01:23:35;;;;;;;;;;;13.90;99.90;;;;;;4933642;28;20009;-89
2023/07/04 01:26:07;;;;;;;;;;;13.90;99.90;;;;;;4938707;28;19921;-88
2023/07/04 01:28:33;;;;;;;;;;;13.80;99.90;;;;;;4958363;28;20366;-88
2023/07/04 01:30:58;;;;;;;;;;;13.80;99.90;;;;;;4942661;28;19968;-88
2023/07/04 01:33:24;;;;;;;;;;;13.70;99.90;;;;;;4972836;28;19941;-88
2023/07/04 01:35:50;;;;;;;;;;;13.70;99.90;;;;;;4959034;28;20294;-88
2023/07/04 01:38:15;;;;;;;;;;;13.70;99.90;;;;;;4940282;28;19918;-88
2023/07/04 01:40:42;;;;;;;;;;;13.70;99.90;;;;;;4958853;28;19914;-87
2023/07/04 01:43:07;;;;;;;;;;;13.60;99.90;;;;;;4939153;28;19914;-88
2023/07/04 01:45:35;;;;;;;;;;;13.60;99.90;;;;;;4958628;28;20008;-88
2023/07/04 01:48:00;;;;;;;;;;;13.60;99.90;;;;;;4953471;28;20005;-87
2023/07/04 01:50:26;;;;;;;;;;;13.60;99.90;;;;;;4955058;28;20013;-88
2023/07/04 01:52:51;;;;;;;;;;;13.60;99.90;;;;;;4935727;28;19983;-88
2023/07/04 01:55:17;;;;;;;;;;;13.70;99.90;;;;;;4934887;29;19919;-88
2023/07/04 01:57:43;;;;;;;;;;;13.60;99.90;;;;;;4970904;28;19918;-88
2023/07/04 02:00:22;;;;;;;;;;;13.60;99.90;;;;;;4953105;28;19914;-88
2023/07/04 02:02:53;;;;;;;;;;;13.50;99.90;;;;;;4959576;28;19921;-88
2023/07/04 02:05:19;;;;;;;;;;;13.50;99.90;;;;;;4936637;28;19914;-87
2023/07/04 02:07:53;;;;;;;;;;;13.50;99.90;;;;;;4952123;28;20322;-87
2023/07/04 02:10:19;;;;;;;;;;;13.60;99.90;;;;;;4939023;29;19914;-87
2023/07/04 02:12:44;;;;;;;;;;;13.60;99.90;;;;;;4959644;28;20005;-87
2023/07/04 02:15:11;;;;;;;;;;;13.50;99.90;;;;;;4960573;28;19957;-87
2023/07/04 02:17:37;;;;;;;;;;;13.50;99.90;;;;;;4937855;28;19915;-87
2023/07/04 02:20:03;;;;;;;;;;;13.60;99.90;;;;;;4959778;28;19914;-86
2023/07/04 02:22:29;;;;;;;;;;;13.50;99.90;;;;;;4962204;28;19921;-87
2023/07/04 02:24:56;;;;;;;;;;;13.40;99.90;;;;;;4961560;28;19918;-87
2023/07/04 02:27:21;;;;;;;;;;;13.30;99.90;;;;;;4940012;28;19921;-87
2023/07/04 02:29:53;;;;;;;;;;;13.40;99.90;;;;;;4939451;28;19914;-87
2023/07/04 02:32:19;;;;;;;;;;;13.30;99.90;;;;;;4956749;28;19914;-87
2023/07/04 02:34:44;;;;;;;;;;;13.30;99.90;;;;;;4950374;28;19925;-87
2023/07/04 02:37:13;;;;;;;;;;;13.30;99.90;;;;;;4943952;28;19921;-87
2023/07/04 02:39:39;;;;;;;;;;;13.30;99.90;;;;;;4939720;28;20306;-87
2023/07/04 02:42:06;;;;;;;;;;;13.30;99.90;;;;;;4944781;28;20432;-87
2023/07/04 02:44:33;;;;;;;;;;;13.30;99.90;;;;;;4934855;28;19914;-87
2023/07/04 02:47:02;;;;;;;;;;;13.30;99.90;;;;;;4960723;28;19914;-86
2023/07/04 02:49:28;;;;;;;;;;;13.30;99.90;;;;;;4942224;28;19918;-87
2023/07/04 02:51:54;;;;;;;;;;;13.30;99.90;;;;;;4960810;28;19914;-87
2023/07/04 02:54:20;;;;;;;;;;;13.40;99.90;;;;;;4941474;28;19918;-86
2023/07/04 02:56:46;;;;;;;;;;;13.30;99.90;;;;;;4960880;28;19918;-87
2023/07/04 02:59:12;;;;;;;;;;;13.30;99.90;;;;;;4974388;28;20001;-87
2023/07/04 03:01:37;;;;;;;;;;;13.20;99.90;;;;;;4960713;28;19914;-87
2023/07/04 03:04:03;;;;;;;;;;;13.10;99.90;;;;;;4941174;28;19915;-87
2023/07/04 03:06:30;;;;;;;;;;;13.00;99.90;;;;;;4961241;28;20284;-87
2023/07/04 03:08:56;;;;;;;;;;;13.10;99.90;;;;;;4941001;28;19914;-87
2023/07/04 03:11:23;;;;;;;;;;;13.20;99.90;;;;;;4960965;28;19914;-88
2023/07/04 03:13:49;;;;;;;;;;;13.30;99.90;;;;;;4955500;28;19918;-87
2023/07/04 03:16:15;;;;;;;;;;;13.40;99.90;;;;;;4941301;28;19925;-87
2023/07/04 03:18:43;;;;;;;;;;;13.50;99.90;;;;;;4933772;28;19973;-87
2023/07/04 03:21:09;;;;;;;;;;;13.40;99.90;;;;;;4938465;28;19914;-88
2023/07/04 03:23:35;;;;;;;;;;;13.30;99.90;;;;;;4959519;28;19914;-88
2023/07/04 03:26:00;;;;;;;;;;;13.20;99.90;;;;;;4923499;28;19915;-88
2023/07/04 03:28:27;;;;;;;;;;;13.10;99.90;;;;;;4943778;28;19961;-88
2023/07/04 03:30:54;;;;;;;;;;;13.20;99.90;;;;;;4936559;28;20005;-87
2023/07/04 03:33:20;;;;;;;;;;;13.20;99.90;;;;;;4960380;28;19929;-87
2023/07/04 03:35:46;;;;;;;;;;;13.30;99.90;;;;;;4935199;28;19910;-87
2023/07/04 03:38:12;;;;;;;;;;;13.20;99.90;;;;;;4959924;28;19914;-88
2023/07/04 03:40:38;;;;;;;;;;;13.30;99.90;;;;;;4952681;28;19921;-88
2023/07/04 03:43:04;;;;;;;;;;;13.10;99.90;;;;;;4960077;28;19949;-88
2023/07/04 03:45:45;;;;;;;;;;;13.10;99.90;;;;;;4940842;28;19914;-88
2023/07/04 03:48:11;;;;;;;;;;;12.90;99.90;;;;;;4960085;28;19914;-88
2023/07/04 03:50:38;;;;;;;;;;;12.70;99.90;;;;;;4942294;28;19915;-88
2023/07/04 03:53:03;;;;;;;;;;;12.50;99.90;;;;;;4944045;28;20006;-88
2023/07/04 03:55:29;;;;;;;;;;;12.40;99.90;;;;;;4973712;28;19981;-88
2023/07/04 03:57:55;;;;;;;;;;;12.40;99.90;;;;;;4960018;28;20338;-88
2023/07/04 04:00:20;;;;;;;;;;;12.30;99.90;;;;;;4956340;28;19983;-88
2023/07/04 04:02:55;;;;;;;;;;;12.30;99.90;;;;;;4961591;28;19920;-88
2023/07/04 04:05:21;;;;;;;;;;;12.30;99.90;;;;;;4959594;28;19996;-88
2023/07/04 04:07:49;;;;;;;;;;;12.30;99.90;;;;;;4959636;28;20628;-87
2023/07/04 04:10:16;;;;;;;;;;;12.30;99.90;;;;;;4952739;28;19945;-88
2023/07/04 04:12:41;;;;;;;;;;;12.30;99.90;;;;;;4936777;29;19925;-88
2023/07/04 04:15:08;;;;;;;;;;;12.30;99.90;;;;;;4974490;28;19918;-87
2023/07/04 04:17:48;;;;;;;;;;;12.40;99.90;;;;;;4934477;29;19922;-87
2023/07/04 04:20:14;;;;;;;;;;;12.40;99.90;;;;;;4940900;28;19979;-87
2023/07/04 04:22:44;;;;;;;;;;;12.50;99.90;;;;;;4959211;28;19973;-88
2023/07/04 04:25:14;;;;;;;;;;;12.50;99.90;;;;;;4939440;28;19921;-87
2023/07/04 04:28:14;;;;;;;;;;;12.60;99.90;;;;;;4943178;28;19914;-87
2023/07/04 04:30:40;;;;;;;;;;;12.70;99.90;;;;;;4954578;28;19937;-88
2023/07/04 04:33:06;;;;;;;;;;;12.80;99.90;;;;;;4939124;28;19969;-87
2023/07/04 04:35:32;;;;;;;;;;;12.90;99.90;;;;;;4959332;28;19997;-89
2023/07/04 04:37:58;;;;;;;;;;;12.90;99.90;;;;;;4938554;28;19922;-88
2023/07/04 04:40:24;;;;;;;;;;;13.00;99.90;;;;;;4959306;28;19910;-87
2023/07/04 04:42:55;;;;;;;;;;;13.10;99.90;;;;;;4934872;28;19914;-87
2023/07/04 04:45:23;;;;;;;;;;;13.10;99.90;;;;;;4939602;28;19914;-87
2023/07/04 04:47:52;;;;;;;;;;;13.20;99.90;;;;;;4933692;28;19962;-88
2023/07/04 04:50:19;;;;;;;;;;;13.30;99.90;;;;;;4938823;28;20001;-87
2023/07/04 04:52:45;;;;;;;;;;;13.40;99.90;;;;;;4935402;28;20004;-88
2023/07/04 04:55:10;;;;;;;;;;;13.40;99.90;;;;;;4959233;28;19961;-88
2023/07/04 04:57:36;;;;;;;;;;;13.50;99.90;;;;;;4942442;28;19969;-88
2023/07/04 05:00:03;;;;;;;;;;;13.60;99.90;;;;;;4942986;28;19916;-88
2023/07/04 05:02:29;;;;;;;;;;;13.70;99.90;;;;;;4940155;28;19960;-88
2023/07/04 05:04:54;;;;;;;;;;;13.80;99.90;;;;;;4959526;28;19914;-88
2023/07/04 05:07:23;;;;;;;;;;;13.90;99.90;;;;;;4956280;28;19937;-88
2023/07/04 05:09:52;;;;;;;;;;;14.00;99.90;;;;;;4942654;28;20389;-87
2023/07/04 05:12:17;;;;;;;;;;;14.10;99.90;;;;;;4938060;28;20377;-88
2023/07/04 05:14:43;;;;;;;;;;;14.10;99.90;;;;;;4958842;28;19922;-88
2023/07/04 05:17:09;;;;;;;;;;;14.20;99.90;;;;;;4937115;28;19919;-88
2023/07/04 05:19:35;;;;;;;;;;;14.30;99.90;;;;;;4959100;28;20425;-88
2023/07/04 05:22:00;;;;;;;;;;;14.30;99.90;;;;;;4952237;28;20263;-87
2023/07/04 05:24:26;;;;;;;;;;;14.40;99.90;;;;;;4935602;29;19945;-88
2023/07/04 05:26:52;;;;;;;;;;;14.50;99.90;;;;;;4955109;28;19910;-88
2023/07/04 05:29:18;;;;;;;;;;;14.50;99.90;;;;;;4959006;28;20338;-88
2023/07/04 05:31:43;;;;;;;;;;;14.50;99.90;;;;;;4940959;28;20354;-88
2023/07/04 05:34:09;;;;;;;;;;;14.60;99.90;;;;;;4958379;28;19922;-88
2023/07/04 05:36:37;;;;;;;;;;;14.60;99.90;;;;;;4943723;28;20363;-88
2023/07/04 05:39:06;;;;;;;;;;;14.70;99.90;;;;;;4928373;28;19968;-88
2023/07/04 05:41:34;;;;;;;;;;;14.80;99.90;;;;;;4918596;28;19923;-88
2023/07/04 05:44:02;;;;;;;;;;;14.90;99.90;;;;;;4924622;28;19915;-88
2023/07/04 05:46:31;;;;;;;;;;;14.90;99.90;;;;;;4926042;28;19914;-89
2023/07/04 05:48:57;;;;;;;;;;;15.00;99.90;;;;;;4953723;28;19987;-88
2023/07/04 05:51:26;;;;;;;;;;;15.00;99.90;;;;;;4928967;28;20385;-89
2023/07/04 05:53:52;;;;;;;;;;;15.10;99.90;;;;;;4949993;28;19946;-89
2023/07/04 05:56:22;;;;;;;;;;;15.20;99.90;;;;;;4939070;28;19937;-88
2023/07/04 05:58:51;;;;;;;;;;;15.30;99.90;;;;;;4955977;28;19918;-88
2023/07/04 06:01:34;;;;;;;;;;;15.30;99.90;;;;;;4929808;28;20944;-88
2023/07/04 06:04:03;;;;;;;;;;;15.40;99.90;;;;;;4956388;28;20366;-88
2023/07/04 06:06:33;;;;;;;;;;;15.50;99.90;;;;;;4934635;28;19915;-88
2023/07/04 06:08:59;;;;;;;;;;;15.60;99.90;;;;;;4954595;28;20330;-88
2023/07/04 06:11:26;;;;;;;;;;;15.70;99.90;;;;;;4958719;28;19914;-87
2023/07/04 06:13:53;;;;;;;;;;;15.70;99.90;;;;;;4952726;28;19941;-88
2023/07/04 06:16:19;;;;;;;;;;;15.80;99.90;;;;;;4943498;28;20450;-88
2023/07/04 06:18:45;;;;;;;;;;;15.90;99.90;;;;;;4939088;28;19962;-87
2023/07/04 06:21:15;;;;;;;;;;;16.00;99.90;;;;;;4945412;28;19914;-89
2023/07/04 06:23:41;;;;;;;;;;;16.10;99.90;;;;;;4939932;28;19914;-88
2023/07/04 06:26:10;;;;;;;;;;;16.10;99.90;;;;;;4952469;28;19969;-89
2023/07/04 06:28:36;;;;;;;;;;;16.00;99.90;;;;;;4956493;29;19933;-88
2023/07/04 06:31:03;;;;;;;;;;;16.10;99.90;;;;;;4950914;28;19914;-88
2023/07/04 06:33:29;;;;;;;;;;;16.10;99.90;;;;;;4945580;28;20366;-88
2023/07/04 06:35:55;;;;;;;;;;;16.20;99.90;;;;;;4924253;29;20282;-88
2023/07/04 06:38:22;;;;;;;;;;;16.30;99.90;;;;;;4942175;28;19914;-88
2023/07/04 06:40:58;;;;;;;;;;;16.30;99.90;;;;;;4937917;28;19914;-88
2023/07/04 06:43:27;;;;;;;;;;;16.40;99.90;;;;;;4930807;28;20024;-88
2023/07/04 06:45:54;;;;;;;;;;;16.40;99.90;;;;;;4929018;29;20267;-88
2023/07/04 06:48:25;;;;;;;;;;;16.50;99.90;;;;;;4952151;28;19966;-87
2023/07/04 06:51:01;;;;;;;;;;;16.50;99.90;;;;;;4933629;28;20345;-88
2023/07/04 06:53:27;;;;;;;;;;;16.50;99.90;;;;;;4945041;28;20332;-88
2023/07/04 06:56:01;;;;;;;;;;;16.50;99.90;;;;;;4935205;29;19953;-87
2023/07/04 06:58:27;;;;;;;;;;;16.40;99.90;;;;;;4934324;29;20001;-87
2023/07/04 07:00:58;;;;;;;;;;;16.50;99.90;;;;;;4931866;29;20353;-87
2023/07/04 07:03:24;;;;;;;;;;;16.60;99.90;;;;;;4968325;28;19914;-87
2023/07/04 07:05:50;;;;;;;;;;;16.60;99.90;;;;;;4929418;29;20013;-88
2023/07/04 07:08:16;;;;;;;;;;;16.70;99.90;;;;;;4967225;28;19913;-88
2023/07/04 07:10:55;;;;;;;;;;;16.80;99.90;;;;;;4955847;28;19938;-89
2023/07/04 07:13:21;;;;;;;;;;;16.90;99.90;;;;;;4954739;28;20868;-89
2023/07/04 07:15:47;;;;;;;;;;;17.10;99.90;;;;;;4956335;28;19924;-88
2023/07/04 07:18:13;;;;;;;;;;;17.30;99.90;;;;;;4949364;28;19914;-88
2023/07/04 07:20:38;;;;;;;;;;;17.90;99.90;;;;;;4930888;29;19914;-87
2023/07/04 07:23:13;;;;;;;;;;;18.90;99.90;;;;;;4943342;28;19915;-88
2023/07/04 07:25:39;;;;;;;;;;;20.10;99.90;;;;;;4950995;28;20286;-87
2023/07/04 07:28:05;;;;;;;;;;;20.90;99.90;;;;;;4942567;28;19934;-89
2023/07/04 07:30:36;;;;;;;;;;;21.60;99.90;;;;;;4932918;28;19937;-89
2023/07/04 07:33:02;;;;;;;;;;;22.10;99.90;;;;;;4937635;28;19968;-88
2023/07/04 07:35:29;;;;;;;;;;;22.20;99.90;;;;;;4957473;28;19922;-89
2023/07/04 07:37:55;;;;;;;;;;;23.00;99.90;;;;;;4941256;28;19977;-87
2023/07/04 07:40:21;;;;;;;;;;;23.30;99.90;;;;;;4950294;28;19921;-87
2023/07/04 07:42:47;;;;;;;;;;;23.20;99.90;;;;;;4949865;28;19910;-88
2023/07/04 07:45:13;;;;;;;;;;;22.50;99.90;;;;;;4941063;28;19950;-88
2023/07/04 07:47:38;;;;;;;;;;;21.10;99.90;;;;;;4930951;28;19945;-88
2023/07/04 07:50:07;;;;;;;;;;;20.40;99.90;;;;;;4930728;28;19915;-88
2023/07/04 07:52:33;;;;;;;;;;;19.70;99.90;;;;;;4951550;28;19921;-88
2023/07/04 07:54:59;;;;;;;;;;;19.30;99.90;;;;;;4942334;28;19919;-89
2023/07/04 07:57:28;;;;;;;;;;;19.10;99.90;;;;;;4938735;28;20012;-89
2023/07/04 07:59:54;;;;;;;;;;;18.80;99.90;;;;;;4952165;28;20346;-87
2023/07/04 08:02:19;;;;;;;;;;;18.90;99.90;;;;;;4951368;28;19914;-87
2023/07/04 08:04:45;;;;;;;;;;;19.90;99.90;;;;;;4933828;28;19918;-88
2023/07/04 08:07:11;;;;;;;;;;;21.30;99.90;;;;;;4925947;28;20519;-87
2023/07/04 08:09:39;;;;;;;;;;;22.20;99.90;;;;;;4957319;28;19914;-88
2023/07/04 08:12:05;;;;;;;;;;;23.30;99.90;;;;;;4944012;28;19910;-88
2023/07/04 08:14:30;;;;;;;;;;;24.00;99.30;;;;;;4934645;28;20271;-88
2023/07/04 08:16:56;;;;;;;;;;;24.30;98.10;;;;;;4935077;29;20331;-88
2023/07/04 08:19:26;;;;;;;;;;;24.70;97.20;;;;;;4943576;28;19965;-88
2023/07/04 08:21:53;;;;;;;;;;;24.60;96.00;;;;;;4935801;28;19914;-89
2023/07/04 08:24:19;;;;;;;;;;;24.70;96.00;;;;;;4957696;28;19920;-90
2023/07/04 08:26:45;;;;;;;;;;;24.70;95.30;;;;;;4950445;28;19997;-88
2023/07/04 08:29:12;;;;;;;;;;;24.70;94.60;;;;;;4936358;28;20013;-90
2023/07/04 08:31:37;;;;;;;;;;;25.30;93.70;;;;;;4937539;28;20385;-89
2023/07/04 08:34:04;;;;;;;;;;;24.80;94.00;;;;;;4955597;28;19918;-88
2023/07/04 08:36:30;;;;;;;;;;;24.70;94.20;;;;;;4934488;28;19914;-88
2023/07/04 08:38:56;;;;;;;;;;;24.70;93.50;;;;;;4935411;29;19986;-88
2023/07/04 08:41:27;;;;;;;;;;;24.90;93.30;;;;;;4958486;28;20269;-89
2023/07/04 08:44:08;;;;;;;;;;;24.50;92.90;;;;;;4959442;28;19921;-88
2023/07/04 08:46:36;;;;;;;;;;;23.60;94.10;;;;;;4928274;28;19914;-88
2023/07/04 08:49:07;;;;;;;;;;;22.70;95.60;;;;;;4951584;28;19915;-88
2023/07/04 08:51:38;;;;;;;;;;;22.40;96.30;;;;;;4938297;28;19914;-88
2023/07/04 08:54:05;;;;;;;;;;;22.70;96.30;;;;;;4958784;28;19926;-88
2023/07/04 08:56:34;;;;;;;;;;;23.50;95.90;;;;;;4959342;28;19973;-90
2023/07/04 08:59:21;;;;;;;;;;;23.90;95.10;;;;;;4959718;28;19918;-89
2023/07/04 09:02:02;;;;;;;;;;;23.50;95.40;;;;;;4967507;28;19925;-90
2023/07/04 09:04:35;;;;;;;;;;;23.50;95.50;;;;;;4959101;28;19922;-88
2023/07/04 09:07:16;;;;;;;;;;;22.20;97.10;;;;;;4958090;28;19914;-87
2023/07/04 09:10:02;;;;;;;;;;;23.00;97.10;;;;;;4952358;28;19918;-88
2023/07/04 09:12:31;;;;;;;;;;;24.60;96.50;;;;;;4936461;28;20346;-88
2023/07/04 09:15:03;;;;;;;;;;;25.40;93.40;;;;;;4938986;28;19973;-90
2023/07/04 09:17:37;;;;;;;;;;;24.80;94.00;;;;;;4951010;28;19957;-87
2023/07/04 09:20:07;;;;;;;;;;;25.00;94.60;;;;;;4935062;29;19914;-89
2023/07/04 09:23:07;;;;;;;;;;;25.70;93.30;;;;;;4960892;28;19926;-89
2023/07/04 09:25:32;;;;;;;;;;;24.90;93.50;;;;;;4956317;28;20029;-88
2023/07/04 09:27:58;;;;;;;;;;;23.50;94.70;;;;;;4959225;28;19964;-88
2023/07/04 09:30:24;;;;;;;;;;;23.50;95.00;;;;;;4953160;28;19914;-88
2023/07/04 09:32:58;;;;;;;;;;;24.20;94.60;;;;;;4941945;28;20381;-88
2023/07/04 09:35:24;;;;;;;;;;;24.90;93.20;;;;;;4943663;28;20005;-89
2023/07/04 09:38:00;;;;;;;;;;;25.50;92.00;;;;;;4979328;28;19914;-89
2023/07/04 09:40:46;;;;;;;;;;;26.20;91.40;;;;;;4971950;28;19914;-89
2023/07/04 09:43:27;;;;;;;;;;;26.40;90.80;;;;;;4950297;28;19984;-89
2023/07/04 09:46:08;;;;;;;;;;;27.00;89.80;;;;;;4947730;28;19921;-89
2023/07/04 09:48:34;;;;;;;;;;;27.80;89.30;;;;;;4938347;28;19918;-88
2023/07/04 09:51:15;;;;;;;;;;;26.50;87.90;;;;;;4940375;28;19914;-87
2023/07/04 09:53:40;;;;;;;;;;;25.50;89.50;;;;;;4924806;28;19969;-90
2023/07/04 09:56:06;;;;;;;;;;;24.90;90.90;;;;;;4951924;28;20017;-88
2023/07/04 10:02:12;;;;;;;;;;;25.10;90.00;;;;;;4972947;28;20269;-89
2023/07/04 10:04:40;;;;;;;;;;;24.40;89.10;;;;;;4941027;28;19970;-90
2023/07/04 10:07:14;;;;;;;;;;;24.40;88.80;;;;;;4935025;28;19922;-88
2023/07/04 10:09:50;;;;;;;;;;;24.50;89.20;;;;;;4943231;28;19914;-88
2023/07/04 10:12:19;;;;;;;;;;;24.60;86.20;;;;;;4923029;28;20458;-88
2023/07/04 10:15:09;;;;;;;;;;;24.40;87.80;;;;;;4954185;28;19940;-89
2023/07/04 10:17:36;;;;;;;;;;;24.70;87.40;;;;;;4951033;28;19924;-89
2023/07/04 10:20:05;;;;;;;;;;;24.00;86.50;;;;;;4939193;28;19922;-88
2023/07/04 10:22:34;;;;;;;;;;;23.60;86.40;;;;;;4950987;28;19933;-89
2023/07/04 10:25:00;;;;;;;;;;;23.70;83.80;;;;;;4935944;28;19922;-88
2023/07/04 10:27:31;;;;;;;;;;;23.50;84.60;;;;;;4968667;28;20281;-89
2023/07/04 10:29:59;;;;;;;;;;;23.30;83.70;;;;;;4926871;29;20363;-88
2023/07/04 10:32:25;;;;;;;;;;;22.80;84.50;;;;;;4944522;28;19942;-89
2023/07/04 10:34:54;;;;;;;;;;;22.80;87.10;;;;;;4939429;29;19918;-90
2023/07/04 10:37:23;;;;;;;;;;;22.70;85.90;;;;;;4942424;28;19965;-89
2023/07/04 10:39:58;;;;;;;;;;;22.50;88.20;;;;;;4936368;28;19915;-89
2023/07/04 10:42:45;;;;;;;;;;;23.10;88.90;;;;;;4941873;28;20389;-89
2023/07/04 10:45:32;;;;;;;;;;;23.80;86.20;;;;;;4954851;28;20004;-89
2023/07/04 10:48:18;;;;;;;;;;;24.00;85.70;;;;;;4953206;29;20425;-88
2023/07/04 10:51:03;;;;;;;;;;;24.30;87.50;;;;;;4953061;28;19914;-88
2023/07/04 10:53:29;;;;;;;;;;;24.80;85.90;;;;;;4944411;28;19985;-88
2023/07/04 10:56:00;;;;;;;;;;;25.10;85.30;;;;;;4941902;28;19915;-89
2023/07/04 10:58:32;;;;;;;;;;;25.00;86.30;;;;;;4937505;28;20001;-88
2023/07/04 11:01:01;;;;;;;;;;;24.50;84.70;;;;;;4962098;28;20306;-88
2023/07/04 11:03:27;;;;;;;;;;;24.50;84.30;;;;;;4935227;28;19911;-88
2023/07/04 11:05:54;;;;;;;;;;;24.70;83.20;;;;;;4956170;28;20370;-87
2023/07/04 11:08:21;;;;;;;;;;;25.10;80.70;;;;;;4942560;28;19918;-89
2023/07/04 11:10:50;;;;;;;;;;;25.00;79.40;;;;;;4935693;28;19921;-88
2023/07/04 11:13:17;;;;;;;;;;;25.20;80.90;;;;;;4960191;28;19918;-88
2023/07/04 11:29:18;;;;;;;;;;;25.70;74.20;;;;;;6082552;22;5853765;-91
2023/07/04 11:32:13;;;;;;;;;;;24.40;75.50;;;;;;6260272;22;19903;-89
2023/07/04 11:35:00;;;;;;;;;;;24.00;74.30;;;;;;6259267;22;19907;-90
2023/07/04 11:37:42;;;;;;;;;;;;;;;;;;;;;
2023/07/04 11:40:20;;;;;;;;;;;24.00;76.50;;;;;;6284830;22;19964;-91
2023/07/04 11:43:06;;;;;;;;;;;23.80;75.40;;;;;;6283570;22;19907;-89
2023/07/04 11:45:39;;;;;;;;;;;23.70;77.50;;;;;;6251187;22;19911;-89
2023/07/04 11:48:07;;;;;;;;;;;24.20;78.50;;;;;;6259294;22;19907;-89
2023/07/04 11:50:44;;;;;;;;;;;25.00;76.20;;;;;;6259751;22;19908;-90
2023/07/04 11:53:23;;;;;;;;;;;25.40;73.40;;;;;;6285794;22;19911;-90
2023/07/04 11:56:07;;;;;;;;;;;25.20;74.20;;;;;;6260329;22;19941;-89
2023/07/04 12:02:24;;;;;;;;;;;24.80;76.90;;;;;;6271775;22;19955;-90
2023/07/04 12:04:52;;;;;;;;;;;24.10;76.60;;;;;;6288481;22;19934;-90
2023/07/04 12:10:17;;;;;;;;;;;24.00;77.00;;;;;;6320096;22;19919;-90
2023/07/04 12:12:43;;;;;;;;;;;24.80;76.40;;;;;;6267019;22;20345;-90
2023/07/04 12:15:11;;;;;;;;;;;25.00;78.00;;;;;;6267236;22;19911;-92
2023/07/04 12:17:41;;;;;;;;;;;24.60;77.10;;;;;;6266002;22;20342;-90
2023/07/04 12:20:11;;;;;;;;;;;25.00;76.90;;;;;;6266274;22;19956;-90
2023/07/04 12:22:41;;;;;;;;;;;25.50;74.60;;;;;;6266500;22;19929;-89
2023/07/04 12:25:08;;;;;;;;;;;24.80;75.50;;;;;;6265409;22;20316;-89
2023/07/04 12:27:34;;;;;;;;;;;24.70;77.40;;;;;;6265319;22;19907;-89
2023/07/04 12:30:37;;;;;;;;;;;24.50;77.00;;;;;;6259089;22;20295;-90
2023/07/04 12:33:02;;;;;;;;;;;24.40;77.10;;;;;;6259780;22;19907;-90
2023/07/04 12:35:32;;;;;;;;;;;24.70;78.00;;;;;;6259164;22;20282;-90
2023/07/04 12:38:02;;;;;;;;;;;24.80;77.30;;;;;;6260279;22;20348;-90
2023/07/04 12:40:29;;;;;;;;;;;25.50;76.20;;;;;;6259728;22;20418;-91
2023/07/04 12:43:00;;;;;;;;;;;25.80;74.00;;;;;;6260996;22;19930;-90
2023/07/04 12:45:26;;;;;;;;;;;25.30;74.40;;;;;;6258973;22;19907;-88
2023/07/04 12:47:54;;;;;;;;;;;24.90;75.10;;;;;;6259811;22;19953;-90
2023/07/04 12:50:20;;;;;;;;;;;25.20;74.60;;;;;;6259988;22;20265;-89
2023/07/04 12:52:47;;;;;;;;;;;25.90;74.00;;;;;;6259773;22;20219;-90
2023/07/04 12:55:27;;;;;;;;;;;26.70;72.30;;;;;;6259490;22;19953;-89
2023/07/04 12:57:54;;;;;;;;;;;26.80;72.70;;;;;;6259900;22;19911;-89
2023/07/04 13:00:26;;;;;;;;;;;26.60;71.80;;;;;;6285626;22;19907;-90
2023/07/04 13:02:52;;;;;;;;;;;26.70;72.80;;;;;;6260246;22;19907;-90
2023/07/04 13:05:18;;;;;;;;;;;26.70;72.10;;;;;;6259197;22;19911;-92
2023/07/04 13:07:49;;;;;;;;;;;26.10;70.80;;;;;;6261795;22;19942;-90
2023/07/04 13:10:23;;;;;;;;;;;25.90;71.90;;;;;;6260514;22;19911;-90
2023/07/04 13:12:53;;;;;;;;;;;26.10;73.60;;;;;;6260545;22;20001;-90
2023/07/04 13:15:21;;;;;;;;;;;26.30;72.60;;;;;;6260173;22;20319;-90
2023/07/04 13:17:55;;;;;;;;;;;25.60;74.50;;;;;;6259265;22;20315;-90
2023/07/04 13:20:55;;;;;;;;;;;24.60;75.80;;;;;;6289768;22;19953;-90
2023/07/04 13:23:22;;;;;;;;;;;24.20;77.20;;;;;;6259768;22;19906;-89
2023/07/04 13:25:49;;;;;;;;;;;24.60;77.50;;;;;;6285413;22;19914;-89
2023/07/04 13:28:17;;;;;;;;;;;24.60;78.20;;;;;;6260402;22;19914;-91
2023/07/04 13:30:43;;;;;;;;;;;24.40;77.20;;;;;;6285148;22;20339;-89
2023/07/04 13:33:28;;;;;;;;;;;23.80;78.50;;;;;;6259489;22;19911;-90
2023/07/04 13:36:03;;;;;;;;;;;23.50;80.20;;;;;;6260117;22;19956;-89
2023/07/04 13:38:32;;;;;;;;;;;23.80;79.60;;;;;;6260211;22;19910;-90
2023/07/04 13:40:58;;;;;;;;;;;24.60;77.50;;;;;;6285199;22;20073;-89
2023/07/04 13:43:27;;;;;;;;;;;24.60;77.70;;;;;;6260408;22;19907;-90
2023/07/04 13:46:17;;;;;;;;;;;24.30;76.60;;;;;;6311538;22;19906;-90
2023/07/04 13:48:43;;;;;;;;;;;24.30;77.70;;;;;;6285438;22;20369;-90
2023/07/04 13:51:09;;;;;;;;;;;24.10;80.20;;;;;;6311822;22;19911;-89
2023/07/04 13:53:35;;;;;;;;;;;23.60;80.30;;;;;;6284674;22;19907;-90
2023/07/04 13:56:01;;;;;;;;;;;23.70;79.60;;;;;;6258643;22;19947;-90
2023/07/04 13:58:27;;;;;;;;;;;24.10;79.30;;;;;;6284948;22;19906;-90
2023/07/04 14:00:55;;;;;;;;;;;24.50;79.00;;;;;;6285073;22;19914;-89
2023/07/04 14:03:21;;;;;;;;;;;24.90;79.00;;;;;;6259344;22;19907;-89
2023/07/04 14:05:47;;;;;;;;;;;25.80;76.60;;;;;;6258558;22;19945;-90
2023/07/04 14:08:16;;;;;;;;;;;25.70;75.40;;;;;;6259264;22;19915;-89
2023/07/04 14:10:42;;;;;;;;;;;25.20;76.80;;;;;;6284985;22;19907;-89
2023/07/04 14:13:07;;;;;;;;;;;24.90;77.40;;;;;;6259124;22;20213;-89
2023/07/04 14:15:33;;;;;;;;;;;24.60;78.80;;;;;;6258589;22;20203;-90
2023/07/04 14:18:02;;;;;;;;;;;25.00;78.20;;;;;;6258868;22;19939;-89
2023/07/04 14:20:28;;;;;;;;;;;25.00;78.00;;;;;;6258338;22;19960;-88
2023/07/04 14:22:54;;;;;;;;;;;24.90;78.50;;;;;;6258758;22;20392;-89
2023/07/04 14:25:22;;;;;;;;;;;25.40;77.60;;;;;;6259278;22;19986;-89
2023/07/04 14:27:48;;;;;;;;;;;25.50;77.30;;;;;;6259135;22;20328;-91
2023/07/04 14:30:13;;;;;;;;;;;25.00;77.40;;;;;;6259021;22;19961;-90
2023/07/04 14:32:42;;;;;;;;;;;24.70;78.90;;;;;;6258086;22;20271;-92
2023/07/04 14:35:09;;;;;;;;;;;25.10;78.30;;;;;;6259436;22;20279;-90
2023/07/04 14:37:35;;;;;;;;;;;25.50;76.20;;;;;;6257058;22;19933;-90
2023/07/04 14:40:01;;;;;;;;;;;26.20;76.60;;;;;;6259571;22;19903;-89
2023/07/04 14:42:29;;;;;;;;;;;26.60;73.90;;;;;;6259845;22;19907;-88
2023/07/04 14:44:55;;;;;;;;;;;26.30;75.40;;;;;;6255469;22;20319;-86
2023/07/04 14:47:27;;;;;;;;;;;25.60;75.50;;;;;;6257547;22;19907;-91
2023/07/04 14:49:52;;;;;;;;;;;25.60;77.00;;;;;;6234871;22;20216;-93
2023/07/04 14:52:18;;;;;;;;;;;26.30;75.90;;;;;;6258302;22;19964;-91
2023/07/04 14:54:44;;;;;;;;;;;26.90;73.80;;;;;;6258104;22;19907;-89
2023/07/04 14:57:10;;;;;;;;;;;27.30;71.40;;;;;;6258631;22;19918;-90